Time;durP1;ratioP1;P1;durP2;ratioP2;P2;SDS_P1;SDS_P2;PMS_P1;PMS_P2;Temp;Humidity;BMP_temperature;BMP_pressure;BME280_temperature;BME280_humidity;BME280_pressure;Samples;Min_cycle;Max_cycle;Signal;HPM_P1;HPM_P2
2023/02/07 00:00:33;;;;;;;38.43;19.40;;;-0.40;99.90;;;;;;2614314;54;20139;-75
2023/02/07 00:06:26;;;;;;;43.83;22.50;;;-0.40;99.90;;;;;;2614158;54;20158;-75
2023/02/07 00:12:13;;;;;;;54.20;25.93;;;0.00;99.90;;;;;;2615156;39;20851;-75
2023/02/07 00:18:01;;;;;;;58.33;27.77;;;0.10;99.90;;;;;;2615309;54;20178;-74
2023/02/07 00:23:48;;;;;;;53.20;29.10;;;0.30;99.90;;;;;;2614921;39;20627;-75
2023/02/07 00:29:35;;;;;;;62.87;31.20;;;0.40;99.90;;;;;;2614521;54;20384;-75
2023/02/07 00:35:23;;;;;;;63.00;31.70;;;0.50;99.90;;;;;;2615504;54;20130;-75
2023/02/07 00:41:14;;;;;;;71.07;35.50;;;0.60;99.90;;;;;;2612698;54;20143;-76
2023/02/07 00:43:55;;;;;;;84.50;38.43;;;0.60;99.90;;;;;;2616174;54;20392;-74
2023/02/07 00:46:20;;;;;;;97.30;44.17;;;0.60;99.90;;;;;;2614736;54;20475;-75
2023/02/07 00:52:08;;;;;;;63.43;33.87;;;0.60;99.90;;;;;;2615694;54;20255;-74
2023/02/07 00:57:59;;;;;;;52.00;31.43;;;0.50;99.90;;;;;;2615374;54;20158;-75
2023/02/07 01:03:47;;;;;;;56.60;32.27;;;0.30;99.90;;;;;;2612214;54;20515;-75
2023/02/07 01:09:35;;;;;;;72.03;35.40;;;0.20;99.90;;;;;;2614358;54;20206;-74
2023/02/07 01:15:23;;;;;;;70.33;34.27;;;0.20;99.90;;;;;;2613068;54;20194;-75
2023/02/07 01:21:19;;;;;;;79.40;37.67;;;0.20;99.90;;;;;;2612931;54;20723;-75
2023/02/07 01:27:07;;;;;;;49.77;29.50;;;0.20;99.90;;;;;;2615452;54;20519;-73
2023/02/07 01:32:54;;;;;;;60.07;29.60;;;0.20;99.90;;;;;;2615400;54;20203;-74
2023/02/07 01:38:42;;;;;;;62.70;28.30;;;0.20;99.90;;;;;;2615738;39;20665;-75
2023/02/07 01:48:25;;;;;;;55.47;30.60;;;0.30;99.90;;;;;;2612183;54;20457;-75
2023/02/07 01:54:15;;;;;;;58.07;29.00;;;0.30;99.90;;;;;;2615121;54;20410;-75
2023/02/07 02:00:05;;;;;;;67.17;30.47;;;0.20;99.90;;;;;;2615180;54;20382;-74
2023/02/07 02:05:53;;;;;;;97.30;38.07;;;0.20;99.90;;;;;;2615444;54;20491;-75
2023/02/07 02:11:40;;;;;;;104.43;44.17;;;0.30;99.90;;;;;;2614238;54;20375;-74
2023/02/07 02:37:16;;;;;;;133.90;47.37;;;0.10;99.90;;;;;;2612712;54;20943;-77
2023/02/07 02:49:49;;;;;;;287.83;58.77;;;-0.10;99.90;;;;;;2613940;54;20944;-75
2023/02/07 03:15:09;;;;;;;153.33;36.60;;;-0.30;99.90;;;;;;2610631;54;20366;-76
2023/02/07 03:21:09;;;;;;;234.27;43.73;;;-0.40;99.90;;;;;;2611436;54;20672;-79
2023/02/07 03:27:00;;;;;;;413.37;69.53;;;-0.50;99.90;;;;;;2613796;54;20378;-79
2023/02/07 03:32:51;;;;;;;282.10;44.90;;;-0.50;99.90;;;;;;2613803;54;20937;-75
2023/02/07 03:38:38;;;;;;;296.00;43.57;;;-0.50;99.90;;;;;;2614301;54;20391;-74
2023/02/07 03:54:48;;;;;;;83.83;31.20;;;-0.50;99.90;;;;;;2614665;54;20382;-74
2023/02/07 04:00:36;;;;;;;169.83;38.17;;;-0.60;99.90;;;;;;2613895;54;20155;-78
2023/02/07 04:06:25;;;;;;;156.47;42.73;;;-0.60;99.90;;;;;;2613487;54;20470;-79
2023/02/07 04:12:12;;;;;;;94.73;34.73;;;-0.80;99.90;;;;;;2612218;54;20419;-79
2023/02/07 04:17:59;;;;;;;198.10;41.90;;;-0.80;99.90;;;;;;2611199;54;20739;-78
2023/02/07 04:23:47;;;;;;;272.90;49.37;;;-0.90;99.90;;;;;;2613505;54;20153;-80
2023/02/07 04:29:35;;;;;;;182.90;48.83;;;-1.00;99.90;;;;;;2612753;54;20223;-75
2023/02/07 04:35:23;;;;;;;258.83;64.10;;;-1.00;99.90;;;;;;2616846;39;20627;-74
2023/02/07 04:41:10;;;;;;;254.57;60.40;;;-1.20;99.90;;;;;;2615002;54;20668;-76
2023/02/07 04:44:13;;;;;;;182.70;51.80;;;-1.10;99.90;;;;;;2615145;54;20412;-74
2023/02/07 04:46:39;;;;;;;146.37;48.53;;;-1.20;99.90;;;;;;2613887;46;20884;-74
2023/02/07 04:49:42;;;;;;;134.37;47.03;;;-1.20;99.90;;;;;;2614872;47;20421;-74
2023/02/07 04:52:07;;;;;;;85.47;40.27;;;-1.40;99.90;;;;;;2615252;54;20249;-72
2023/02/07 04:57:55;;;;;;;54.93;32.00;;;-1.50;99.90;;;;;;2615567;54;20118;-75
2023/02/07 05:03:45;;;;;;;53.83;27.40;;;-1.60;99.90;;;;;;2607987;54;20130;-75
2023/02/07 05:09:33;;;;;;;46.27;24.37;;;-1.70;99.90;;;;;;2611117;54;20391;-74
2023/02/07 05:15:21;;;;;;;41.83;23.87;;;-1.80;99.90;;;;;;2607353;39;20476;-74
2023/02/07 05:21:10;;;;;;;46.47;25.60;;;-1.80;99.90;;;;;;2606708;54;21018;-75
2023/02/07 05:26:57;;;;;;;50.23;27.23;;;-2.00;99.90;;;;;;2615311;54;20920;-74
2023/02/07 05:38:51;;;;;;;78.97;38.20;;;-1.90;99.90;;;;;;2615704;54;20482;-74
2023/02/07 05:55:05;;;;;;;95.37;43.70;;;-2.10;99.90;;;;;;2613608;54;21437;-82
2023/02/07 06:00:54;;;;;;;108.30;42.97;;;-2.30;99.90;;;;;;2603944;54;20419;-76
2023/02/07 06:06:41;;;;;;;84.97;40.13;;;-2.40;99.90;;;;;;2610979;54;20419;-80
2023/02/07 06:12:28;;;;;;;59.40;33.80;;;-2.30;99.90;;;;;;2613230;54;20129;-80
2023/02/07 06:18:15;;;;;;;52.17;30.17;;;-2.50;99.90;;;;;;2610644;54;20257;-81
2023/02/07 06:24:03;;;;;;;54.73;31.37;;;-2.60;99.90;;;;;;2615000;54;20326;-79
2023/02/07 06:29:50;;;;;;;40.37;26.20;;;-2.50;99.90;;;;;;2612063;54;20375;-79
2023/02/07 06:35:45;;;;;;;37.67;24.77;;;-2.50;99.90;;;;;;2613186;54;20138;-80
2023/02/07 06:41:33;;;;;;;39.00;23.90;;;-2.70;99.90;;;;;;2614998;39;20896;-74
2023/02/07 06:51:15;;;;;;;40.57;24.43;;;-2.60;99.90;;;;;;2612915;54;20378;-73
2023/02/07 06:57:02;;;;;;;34.37;23.27;;;-2.70;99.90;;;;;;2613388;54;20386;-74
2023/02/07 07:02:50;;;;;;;31.37;21.70;;;-2.80;99.90;;;;;;2614493;39;20599;-74
2023/02/07 07:08:42;;;;;;;39.43;21.33;;;-2.70;99.90;;;;;;2614167;54;20999;-74
2023/02/07 07:14:29;;;;;;;40.70;23.13;;;-2.60;99.90;;;;;;2615579;39;21024;-74
2023/02/07 07:20:16;;;;;;;31.87;21.93;;;-2.70;99.90;;;;;;2614272;54;20247;-74
2023/02/07 07:26:04;;;;;;;34.40;22.23;;;-2.60;99.90;;;;;;2615609;54;20153;-73
2023/02/07 07:31:52;;;;;;;34.93;21.03;;;-2.60;99.90;;;;;;2614482;54;20458;-77
2023/02/07 07:37:40;;;;;;;35.37;22.07;;;-1.60;99.90;;;;;;2614189;54;20150;-76
2023/02/07 07:43:28;;;;;;;46.03;27.67;;;-0.70;99.90;;;;;;2615206;54;20391;-74
2023/02/07 07:49:16;;;;;;;52.33;37.30;;;-0.60;99.90;;;;;;2614910;54;20345;-73
2023/02/07 07:52:31;;;;;;;54.30;40.57;;;-0.70;99.90;;;;;;2615695;39;20838;-74
2023/02/07 07:58:20;;;;;;;43.10;29.90;;;-0.70;99.90;;;;;;2614204;54;20434;-74
2023/02/07 08:04:08;;;;;;;34.07;22.70;;;0.50;99.90;;;;;;2615456;31;20941;-74
2023/02/07 08:09:56;;;;;;;27.80;21.07;;;0.90;99.90;;;;;;2615414;54;20286;-74
2023/02/07 08:12:56;;;;;;;31.60;22.07;;;2.80;99.90;;;;;;2614918;47;20801;-74
2023/02/07 08:15:23;;;;;;;25.00;18.53;;;1.60;99.90;;;;;;2616028;54;20139;-74
2023/02/07 08:17:49;;;;;;;31.83;21.37;;;1.60;99.90;;;;;;2614793;54;20449;-74
2023/02/07 08:20:15;;;;;;;30.33;22.07;;;2.30;99.90;;;;;;2614688;54;20426;-74
2023/02/07 08:26:03;;;;;;;27.57;18.50;;;3.10;99.90;;;;;;2614751;54;20737;-76
2023/02/07 08:31:51;;;;;;;26.33;17.63;;;5.90;99.90;;;;;;2614690;54;20395;-74
2023/02/07 08:37:39;;;;;;;18.97;16.93;;;7.40;99.90;;;;;;2614397;39;21833;-73
2023/02/07 08:43:27;;;;;;;21.67;15.60;;;7.50;84.60;;;;;;2613870;54;20150;-78
2023/02/07 08:52:38;;;;;;;18.77;15.20;;;8.40;57.70;;;;;;2615593;54;20507;-77
2023/02/07 08:58:25;;;;;;;16.83;14.40;;;7.80;46.90;;;;;;2615640;54;20499;-80
2023/02/07 09:04:13;;;;;;;17.90;14.53;;;9.30;38.40;;;;;;2614835;54;20129;-79
2023/02/07 09:10:03;;;;;;;15.40;13.43;;;8.00;43.30;;;;;;2613919;46;20161;-78
2023/02/07 09:15:57;;;;;;;19.63;13.40;;;8.60;34.70;;;;;;2615347;54;20386;-78
2023/02/07 09:21:44;;;;;;;15.67;13.90;;;8.50;30.80;;;;;;2614770;54;20415;-78
2023/02/07 09:24:16;;;;;;;16.57;14.87;;;7.90;38.90;;;;;;2613779;54;20415;-78
2023/02/07 09:26:42;;;;;;;18.20;13.00;;;8.80;41.50;;;;;;2613105;54;20287;-77
2023/02/07 09:32:29;;;;;;;15.50;12.97;;;10.40;29.90;;;;;;2612925;54;20170;-78
2023/02/07 09:38:22;;;;;;;13.00;11.80;;;11.70;20.40;;;;;;2615114;54;20243;-78
2023/02/07 09:48:07;;;;;;;13.77;12.50;;;12.70;9.30;;;;;;2614212;54;20411;-78
2023/02/07 09:50:42;;;;;;;12.70;11.50;;;10.20;4.00;;;;;;2614071;54;20428;-77
2023/02/07 09:56:31;;;;;;;13.00;11.90;;;11.10;5.90;;;;;;2615623;54;21314;-77
2023/02/07 10:02:43;;;;;;;11.73;10.80;;;10.70;6.10;;;;;;2614232;54;20504;-76
2023/02/07 10:08:32;;;;;;;11.40;10.50;;;12.80;1.40;;;;;;2613693;54;21046;-79
2023/02/07 10:47:01;;;;;;;12.10;11.37;;;11.50;1.00;;;;;;2612047;54;20411;-79
2023/02/07 10:52:52;;;;;;;12.50;11.70;;;14.10;1.00;;;;;;2612618;54;20541;-79
2023/02/07 10:58:39;;;;;;;13.50;12.60;;;11.40;1.00;;;;;;2613873;54;20474;-78
2023/02/07 11:10:47;;;;;;;14.47;13.57;;;14.10;1.00;;;;;;2611346;54;20391;-78
2023/02/07 11:16:34;;;;;;;14.30;13.40;;;14.80;1.00;;;;;;2612147;54;20403;-77
2023/02/07 11:22:23;;;;;;;15.63;14.40;;;13.20;1.00;;;;;;2612635;54;20146;-77
2023/02/07 11:35:05;;;;;;;14.63;13.70;;;14.30;1.00;;;;;;2610988;54;20412;-79
2023/02/07 11:40:57;;;;;;;14.73;13.83;;;14.90;1.00;;;;;;2611574;54;21038;-78
2023/02/07 11:46:46;;;;;;;15.37;13.77;;;13.20;1.00;;;;;;2614625;54;20412;-78
2023/02/07 11:55:56;;;;;;;14.33;13.30;;;15.80;1.00;;;;;;2613435;54;20545;-78
2023/02/07 12:11:35;;;;;;;14.37;13.40;;;15.80;1.00;;;;;;2615924;54;20391;-74
2023/02/07 12:17:32;;;;;;;15.20;14.20;;;17.00;1.00;;;;;;2616209;54;20419;-76
2023/02/07 12:23:37;;;;;;;14.80;13.87;;;13.60;1.00;;;;;;2616146;54;20415;-75
2023/02/07 12:42:41;;;;;;;14.70;13.40;;;14.00;1.00;;;;;;2615808;54;20916;-75
2023/02/07 12:48:35;;;;;;;14.57;13.80;;;15.80;1.00;;;;;;2615764;54;20383;-75
2023/02/07 12:58:18;;;;;;;15.13;14.17;;;14.70;1.00;;;;;;2616158;31;20986;-75
2023/02/07 13:14:23;;;;;;;15.70;14.27;;;17.40;1.00;;;;;;2614756;54;20407;-78
2023/02/07 13:20:39;;;;;;;15.30;14.30;;;15.50;1.00;;;;;;2613553;54;20527;-79
2023/02/07 13:26:30;;;;;;;16.13;14.90;;;16.30;1.00;;;;;;2612791;39;21134;-79
2023/02/07 13:32:28;;;;;;;14.30;13.43;;;17.00;1.00;;;;;;2613992;54;20395;-78
2023/02/07 13:38:21;;;;;;;16.53;15.40;;;16.40;1.00;;;;;;2613778;54;20419;-78
2023/02/07 14:08:15;;;;;;;16.37;15.27;;;16.10;1.00;;;;;;2615057;54;20429;-74
2023/02/07 14:11:41;;;;;;;16.87;15.77;;;15.80;1.00;;;;;;2614078;54;20431;-76
2023/02/07 14:14:23;;;;;;;16.10;15.03;;;16.00;1.00;;;;;;2614339;54;20548;-75
2023/02/07 14:20:31;;;;;;;15.43;14.33;;;16.30;1.00;;;;;;2613351;54;20402;-79
2023/02/07 14:26:36;;;;;;;16.77;15.73;;;14.20;1.00;;;;;;2613673;54;20406;-75
2023/02/07 14:32:25;;;;;;;15.93;14.87;;;13.30;1.00;;;;;;2615804;54;20431;-75
2023/02/07 14:38:21;;;;;;;16.13;14.97;;;15.70;1.00;;;;;;2613982;54;20428;-74
2023/02/07 14:50:52;;;;;;;16.33;15.10;;;13.70;1.00;;;;;;2613930;54;20475;-74
2023/02/07 14:56:45;;;;;;;16.47;15.47;;;14.60;1.00;;;;;;2612152;54;20427;-75
2023/02/07 15:02:34;;;;;;;17.93;16.50;;;11.80;1.00;;;;;;2614050;54;20390;-75
2023/02/07 15:08:24;;;;;;;17.40;16.20;;;12.20;1.00;;;;;;2615415;54;20427;-76
2023/02/07 15:27:02;;;;;;;16.67;15.67;;;12.90;1.00;;;;;;2615118;54;20495;-74
2023/02/07 15:32:49;;;;;;;16.27;15.23;;;11.90;1.00;;;;;;2615899;54;20414;-75
2023/02/07 15:38:37;;;;;;;18.13;16.97;;;11.30;1.00;;;;;;2615598;54;20138;-75
2023/02/07 15:44:32;;;;;;;17.23;15.87;;;10.90;1.00;;;;;;2616228;54;20150;-74
2023/02/07 15:50:22;;;;;;;18.67;17.27;;;8.90;1.00;;;;;;2616269;54;20414;-75
2023/02/07 15:56:13;;;;;;;18.87;17.27;;;7.60;1.00;;;;;;2616787;54;20406;-75
2023/02/07 16:02:01;;;;;;;18.87;17.27;;;6.20;7.70;;;;;;2613369;54;20504;-75
2023/02/07 16:07:49;;;;;;;22.50;20.60;;;5.70;10.30;;;;;;2616245;54;20254;-76
2023/02/07 16:13:44;;;;;;;19.53;17.63;;;5.40;15.20;;;;;;2616610;54;20414;-75
2023/02/07 16:19:32;;;;;;;19.37;17.70;;;5.00;16.90;;;;;;2616570;54;20387;-76
2023/02/07 16:25:22;;;;;;;18.40;16.80;;;4.90;20.40;;;;;;2616822;54;20250;-76
2023/02/07 16:31:16;;;;;;;18.90;17.50;;;4.50;23.70;;;;;;2616614;54;20976;-76
2023/02/07 16:37:04;;;;;;;18.17;16.53;;;4.20;27.50;;;;;;2616805;54;20399;-76
2023/02/07 16:42:53;;;;;;;18.30;16.83;;;3.90;34.00;;;;;;2617169;54;20919;-77
2023/02/07 16:48:41;;;;;;;17.33;15.93;;;3.60;47.80;;;;;;2617352;54;20369;-75
2023/02/07 16:57:56;;;;;;;17.30;15.83;;;3.30;63.60;;;;;;2617379;54;20943;-76
2023/02/07 17:03:47;;;;;;;19.23;16.77;;;2.90;83.90;;;;;;2614961;54;20355;-76
2023/02/07 17:09:35;;;;;;;21.80;16.60;;;2.80;90.20;;;;;;2617779;46;20390;-76
2023/02/07 17:15:24;;;;;;;17.73;15.90;;;2.60;93.30;;;;;;2617657;54;20134;-80
2023/02/07 17:21:15;;;;;;;17.43;15.80;;;2.40;99.90;;;;;;2617663;54;20383;-81
2023/02/07 17:27:06;;;;;;;15.60;14.30;;;2.00;99.90;;;;;;2617607;54;20409;-80
2023/02/07 17:32:54;;;;;;;18.30;16.50;;;1.80;99.90;;;;;;2616997;54;20396;-83
2023/02/07 17:38:42;;;;;;;19.27;16.40;;;1.50;99.90;;;;;;2621285;54;20957;-85
2023/02/07 17:44:32;;;;;;;17.30;15.57;;;1.40;99.90;;;;;;2621678;54;20375;-85
2023/02/07 17:53:25;;;;;;;20.47;16.40;;;1.20;99.90;;;;;;2621026;54;20395;-86
2023/02/07 17:55:51;;;;;;;17.30;15.70;;;1.00;99.90;;;;;;2620547;47;20390;-87
2023/02/07 18:01:39;;;;;;;15.43;14.03;;;0.90;99.90;;;;;;2621672;46;20175;-85
2023/02/07 18:07:26;;;;;;;16.23;14.53;;;0.70;99.90;;;;;;2620026;54;20122;-85
2023/02/07 18:13:14;;;;;;;16.23;14.63;;;0.50;99.90;;;;;;2619697;54;20350;-86
2023/02/07 18:19:02;;;;;;;19.67;15.23;;;0.30;99.90;;;;;;2619133;54;20246;-85
2023/02/07 18:24:49;;;;;;;18.20;14.27;;;0.30;99.90;;;;;;2618131;54;20375;-86
2023/02/07 18:30:38;;;;;;;17.30;15.33;;;0.20;99.90;;;;;;2619467;54;20134;-85
2023/02/07 18:36:28;;;;;;;17.37;14.67;;;0.10;99.90;;;;;;2620608;54;20386;-84
2023/02/07 18:42:16;;;;;;;21.97;18.33;;;-0.10;99.90;;;;;;2619958;39;20753;-84
2023/02/07 18:48:04;;;;;;;19.33;16.60;;;-0.20;99.90;;;;;;2619521;54;20407;-83
2023/02/07 18:58:01;;;;;;;22.77;19.33;;;-0.30;99.90;;;;;;2619853;54;20350;-84
2023/02/07 19:03:53;;;;;;;41.33;32.47;;;-0.50;99.90;;;;;;2619392;54;20354;-86
2023/02/07 19:09:40;;;;;;;42.93;38.27;;;-0.50;99.90;;;;;;2619562;54;20463;-85
2023/02/07 19:15:28;;;;;;;50.20;41.40;;;-0.70;99.90;;;;;;2619576;54;20143;-83
2023/02/07 19:21:20;;;;;;;56.30;44.80;;;-0.80;99.90;;;;;;2619538;54;20207;-85
2023/02/07 19:27:08;;;;;;;51.50;45.07;;;-0.90;99.90;;;;;;2619595;54;20921;-83
2023/02/07 19:32:57;;;;;;;52.13;44.80;;;-0.70;99.90;;;;;;2620084;54;20347;-83
2023/02/07 19:38:47;;;;;;;48.70;40.07;;;-0.90;99.90;;;;;;2619901;54;20412;-84
2023/02/07 19:44:35;;;;;;;49.70;39.50;;;-1.10;99.90;;;;;;2619856;54;20353;-85
2023/02/07 19:50:25;;;;;;;48.50;40.60;;;-1.10;99.90;;;;;;2619859;46;20134;-84
2023/02/07 19:53:31;;;;;;;44.33;34.30;;;-1.20;99.90;;;;;;2619127;46;20973;-84
2023/02/07 19:56:10;;;;;;;37.73;32.90;;;-1.30;99.90;;;;;;2619766;54;20428;-84
2023/02/07 20:01:57;;;;;;;37.10;29.50;;;-1.30;99.90;;;;;;2618633;39;20760;-84
2023/02/07 20:07:44;;;;;;;35.90;26.40;;;-1.30;99.90;;;;;;2618280;54;20403;-87
2023/02/07 20:16:53;;;;;;;34.77;24.07;;;-1.20;99.90;;;;;;2618608;54;20412;-85
2023/02/07 20:22:40;;;;;;;28.90;21.40;;;-1.30;99.90;;;;;;2618462;54;20167;-83
2023/02/07 20:28:28;;;;;;;28.23;21.67;;;-1.50;99.90;;;;;;2618332;54;20146;-86
2023/02/07 20:34:16;;;;;;;36.27;23.00;;;-1.60;99.90;;;;;;2619773;54;20379;-85
2023/02/07 20:40:04;;;;;;;27.90;20.10;;;-1.50;99.90;;;;;;2620474;54;20653;-84
2023/02/07 20:52:26;;;;;;;26.60;19.70;;;-1.80;99.90;;;;;;2620718;54;20343;-85
2023/02/07 20:58:14;;;;;;;39.30;23.83;;;-1.80;99.90;;;;;;2620396;54;20122;-84
2023/02/07 21:04:04;;;;;;;36.37;24.20;;;-1.90;99.90;;;;;;2621010;39;20528;-84
2023/02/07 21:09:52;;;;;;;26.37;22.40;;;-1.90;99.90;;;;;;2620390;54;20528;-84
2023/02/07 21:15:41;;;;;;;35.63;25.53;;;-1.90;99.90;;;;;;2620403;54;20380;-84
2023/02/07 21:21:38;;;;;;;26.97;20.90;;;-2.00;99.90;;;;;;2621013;54;20399;-84
2023/02/07 21:27:28;;;;;;;28.03;19.10;;;-2.10;99.90;;;;;;2620527;54;20415;-85
2023/02/07 21:43:20;;;;;;;25.43;19.00;;;-2.00;99.90;;;;;;2618017;54;20391;-85
2023/02/07 21:49:13;;;;;;;31.97;22.23;;;-2.20;99.90;;;;;;2618072;54;20420;-86
2023/02/07 21:55:00;;;;;;;28.17;18.27;;;-2.20;99.90;;;;;;2618605;54;20423;-86
2023/02/07 22:00:48;;;;;;;27.73;21.27;;;-2.10;99.90;;;;;;2618644;54;20248;-86
2023/02/07 22:09:57;;;;;;;27.03;18.60;;;-2.20;99.90;;;;;;2618803;54;20358;-86
2023/02/07 22:15:49;;;;;;;25.93;20.40;;;-2.40;99.90;;;;;;2618766;39;20736;-84
2023/02/07 22:21:43;;;;;;;30.13;21.80;;;-2.50;99.90;;;;;;2619318;54;21257;-86
2023/02/07 22:27:31;;;;;;;30.63;22.20;;;-2.30;99.90;;;;;;2620337;54;20383;-87
2023/02/07 22:33:19;;;;;;;38.47;22.63;;;-2.30;99.90;;;;;;2621013;31;20854;-85
2023/02/07 22:39:08;;;;;;;32.13;20.80;;;-2.50;99.90;;;;;;2622579;39;20756;-85
2023/02/07 22:44:56;;;;;;;23.70;18.93;;;-2.50;99.90;;;;;;2621747;54;20383;-85
2023/02/07 22:50:43;;;;;;;26.60;21.40;;;-2.60;99.90;;;;;;2621718;54;20123;-86
2023/02/07 22:53:28;;;;;;;33.73;21.83;;;-2.70;99.90;;;;;;2620994;47;20363;-85
2023/02/07 22:55:59;;;;;;;30.90;21.87;;;-2.80;99.90;;;;;;2620728;54;20649;-84
2023/02/07 23:01:47;;;;;;;29.57;22.27;;;-2.80;99.90;;;;;;2621244;54;20334;-85
2023/02/07 23:07:35;;;;;;;30.43;22.40;;;-2.80;99.90;;;;;;2620006;54;20370;-85
2023/02/07 23:13:23;;;;;;;32.03;22.80;;;-2.80;99.90;;;;;;2619982;54;20362;-84
2023/02/07 23:22:36;;;;;;;33.90;22.90;;;-2.80;99.90;;;;;;2621106;54;20334;-85
2023/02/07 23:28:23;;;;;;;27.13;21.40;;;-3.00;99.90;;;;;;2621645;46;20366;-87
2023/02/07 23:34:11;;;;;;;36.00;23.33;;;-3.00;99.90;;;;;;2621322;54;20338;-85
2023/02/07 23:39:59;;;;;;;34.10;23.00;;;-3.10;99.90;;;;;;2622385;46;20142;-86
2023/02/07 23:45:47;;;;;;;30.07;21.67;;;-3.00;99.90;;;;;;2622157;54;20123;-86
2023/02/07 23:51:35;;;;;;;36.00;25.20;;;-3.20;99.90;;;;;;2622227;54;20134;-86
2023/02/07 23:57:23;;;;;;;29.47;21.53;;;-3.10;99.90;;;;;;2621696;54;20415;-86
